createdAt,value
2019-04-25T00:02:30.873Z,14.31
2019-04-25T00:05:08.129Z,14.33
2019-04-25T00:07:39.050Z,14.50
2019-04-25T00:10:07.798Z,14.61
2019-04-25T00:12:37.866Z,14.71
2019-04-25T00:15:08.101Z,14.75
2019-04-25T00:17:37.875Z,14.84
2019-04-25T00:20:08.058Z,14.78
2019-04-25T00:22:54.592Z,14.76
2019-04-25T00:25:36.615Z,14.78
2019-04-25T00:28:06.876Z,14.85
2019-04-25T00:30:35.536Z,14.87
2019-04-25T00:33:04.098Z,14.88
2019-04-25T00:35:33.640Z,14.82
2019-04-25T00:38:02.470Z,14.78
2019-04-25T00:40:31.881Z,14.67
2019-04-25T00:43:01.588Z,14.51
2019-04-25T00:45:31.728Z,14.40
2019-04-25T00:48:00.428Z,14.27
2019-04-25T00:50:29.050Z,14.26
2019-04-25T00:52:57.914Z,14.24
2019-04-25T00:55:28.980Z,14.32
2019-04-25T00:57:59.414Z,14.27
2019-04-25T01:00:29.660Z,14.10
2019-04-25T01:03:01.636Z,14.06
2019-04-25T01:05:31.620Z,14.03
2019-04-25T01:08:02.100Z,14.02
2019-04-25T01:10:31.601Z,13.92
2019-04-25T01:13:01.114Z,13.89
2019-04-25T01:15:31.453Z,13.82
2019-04-25T01:18:01.218Z,13.76
2019-04-25T01:20:30.004Z,13.77
2019-04-25T01:23:00.764Z,13.79
2019-04-25T01:25:38.478Z,13.80
2019-04-25T01:27:59.263Z,13.81
2019-04-25T01:30:28.181Z,13.73
2019-04-25T01:33:00.129Z,13.73
2019-04-25T01:35:39.496Z,13.68
2019-04-25T01:38:09.707Z,13.67
2019-04-25T01:40:53.384Z,13.54
2019-04-25T01:43:26.730Z,13.58
2019-04-25T01:45:58.938Z,13.47
2019-04-25T01:48:27.539Z,13.46
2019-04-25T01:50:58.754Z,13.41
2019-04-25T01:53:27.341Z,13.34
2019-04-25T01:56:03.693Z,13.30
2019-04-25T01:58:27.948Z,13.21
2019-04-25T02:00:58.584Z,13.18
2019-04-25T02:03:27.432Z,13.15
2019-04-25T02:05:59.117Z,13.18
2019-04-25T02:08:27.877Z,13.35
2019-04-25T02:11:02.796Z,13.36
2019-04-25T02:13:33.649Z,13.42
2019-04-25T02:16:03.428Z,13.53
2019-04-25T02:18:33.590Z,13.60
2019-04-25T02:21:04.140Z,13.62
2019-04-25T02:23:34.055Z,13.64
2019-04-25T02:26:13.922Z,13.69
2019-04-25T02:28:33.854Z,13.66
2019-04-25T02:31:08.171Z,13.64
2019-04-25T02:33:34.018Z,13.58
2019-04-25T02:36:08.306Z,13.60
2019-04-25T02:38:34.208Z,13.65
2019-04-25T02:41:08.417Z,13.69
2019-04-25T02:43:35.039Z,13.68
2019-04-25T02:46:21.563Z,13.68
2019-04-25T02:49:09.636Z,13.68
2019-04-25T02:51:52.140Z,13.70
2019-04-25T02:54:20.750Z,13.76
2019-04-25T02:56:49.363Z,13.72
2019-04-25T02:59:17.969Z,13.71
2019-04-25T03:01:46.787Z,13.66
2019-04-25T03:04:15.812Z,13.66
2019-04-25T03:06:45.414Z,13.68
2019-04-25T03:09:15.405Z,13.74
2019-04-25T03:11:45.045Z,13.68
2019-04-25T03:14:14.832Z,13.71
2019-04-25T03:16:44.869Z,13.70
2019-04-25T03:19:27.685Z,13.75
2019-04-25T03:22:07.724Z,13.83
2019-04-25T03:24:35.143Z,13.94
2019-04-25T03:27:05.230Z,13.93
2019-04-25T03:29:34.324Z,14.03
2019-04-25T03:32:08.772Z,14.13
2019-04-25T03:34:35.093Z,14.13
2019-04-25T03:37:05.287Z,14.09
2019-04-25T03:39:34.185Z,14.14
2019-04-25T03:42:04.888Z,14.16
2019-04-25T03:44:33.857Z,14.27
2019-04-25T03:47:05.923Z,14.25
2019-04-25T03:49:33.714Z,14.24
2019-04-25T03:52:04.383Z,14.22
2019-04-25T03:54:33.421Z,14.26
2019-04-25T03:57:04.767Z,14.29
2019-04-25T03:59:33.597Z,14.25
2019-04-25T04:02:03.089Z,14.22
2019-04-25T04:04:33.489Z,14.24
2019-04-25T04:07:04.438Z,14.18
2019-04-25T04:09:33.847Z,14.12
2019-04-25T04:12:04.328Z,14.09
2019-04-25T04:14:33.866Z,14.02
2019-04-25T04:17:23.687Z,13.85
2019-04-25T04:19:54.516Z,13.69
2019-04-25T04:22:27.233Z,13.65
2019-04-25T04:24:59.048Z,13.53
2019-04-25T04:27:27.765Z,13.42
2019-04-25T04:29:56.382Z,13.31
2019-04-25T04:32:25.204Z,13.27
2019-04-25T04:34:53.885Z,13.26
2019-04-25T04:37:23.637Z,13.20
2019-04-25T04:39:53.628Z,13.21
2019-04-25T04:42:23.689Z,13.18
2019-04-25T04:44:53.458Z,13.13
2019-04-25T04:47:23.527Z,13.05
2019-04-25T04:49:53.859Z,12.95
2019-04-25T04:52:25.178Z,12.93
2019-04-25T04:55:03.708Z,12.85
2019-04-25T04:57:31.931Z,12.73
2019-04-25T04:59:54.741Z,12.73
2019-04-25T05:02:39.810Z,12.63
2019-04-25T05:05:19.484Z,12.65
2019-04-25T05:07:49.774Z,12.56
2019-04-25T05:10:19.061Z,12.55
2019-04-25T05:12:48.529Z,12.56
2019-04-25T05:15:18.211Z,12.52
2019-04-25T05:17:47.706Z,12.51
2019-04-25T05:20:17.573Z,12.50
2019-04-25T05:22:46.676Z,12.53
2019-04-25T05:25:16.665Z,12.48
2019-04-25T05:28:00.073Z,12.46
2019-04-25T05:30:17.946Z,12.48
2019-04-25T05:32:46.543Z,12.46
2019-04-25T05:35:16.271Z,12.44
2019-04-25T05:37:48.221Z,12.50
2019-04-25T05:40:17.496Z,12.44
2019-04-25T05:42:56.600Z,12.48
2019-04-25T05:45:29.611Z,12.37
2019-04-25T05:47:58.535Z,12.39
2019-04-25T05:50:27.097Z,12.41
2019-04-25T05:52:55.656Z,12.40
2019-04-25T05:55:25.240Z,12.48
2019-04-25T05:57:53.962Z,12.65
2019-04-25T06:00:24.779Z,12.67
2019-04-25T06:02:53.333Z,12.67
2019-04-25T06:05:23.379Z,12.62
2019-04-25T06:07:52.360Z,12.59
2019-04-25T06:10:34.914Z,12.59
2019-04-25T06:13:05.831Z,12.59
2019-04-25T06:15:35.361Z,12.62
2019-04-25T06:18:08.163Z,12.72
2019-04-25T06:20:37.866Z,12.84
2019-04-25T06:23:13.847Z,13.09
2019-04-25T06:25:43.925Z,13.37
2019-04-25T06:28:21.646Z,13.69
2019-04-25T06:30:50.566Z,14.01
2019-04-25T06:33:19.242Z,14.19
2019-04-25T06:35:47.792Z,14.41
2019-04-25T06:38:16.791Z,14.51
2019-04-25T06:40:45.816Z,14.75
2019-04-25T06:43:14.370Z,14.86
2019-04-25T06:45:55.807Z,14.99
2019-04-25T06:48:26.257Z,15.14
2019-04-25T06:50:55.589Z,15.23
2019-04-25T06:53:25.767Z,15.36
2019-04-25T06:55:55.070Z,15.42
2019-04-25T06:58:27.050Z,15.59
2019-04-25T07:00:58.861Z,15.63
2019-04-25T07:03:27.102Z,15.67
2019-04-25T07:05:55.728Z,15.70
2019-04-25T07:08:26.913Z,15.74
2019-04-25T07:10:56.308Z,15.82
2019-04-25T07:13:26.964Z,15.89
2019-04-25T07:15:55.849Z,15.91
2019-04-25T07:18:30.247Z,15.89
2019-04-25T07:20:55.961Z,15.97
2019-04-25T07:23:25.677Z,16.04
2019-04-25T07:25:55.923Z,16.18
2019-04-25T07:28:38.084Z,16.20
2019-04-25T07:31:25.110Z,16.38
2019-04-25T07:34:07.342Z,16.59
2019-04-25T07:36:36.247Z,16.78
2019-04-25T07:39:10.656Z,16.76
2019-04-25T07:41:38.692Z,16.86
2019-04-25T07:44:07.404Z,16.99
2019-04-25T07:46:39.575Z,17.12
2019-04-25T07:49:06.901Z,17.21
2019-04-25T07:51:36.712Z,17.25
2019-04-25T07:54:05.889Z,17.34
2019-04-25T07:56:35.529Z,17.29
2019-04-25T07:59:06.626Z,17.40
2019-04-25T08:01:37.499Z,17.31
2019-04-25T08:04:06.376Z,17.43
2019-04-25T08:06:35.758Z,17.44
2019-04-25T08:09:07.997Z,17.52
2019-04-25T08:11:36.670Z,17.63
2019-04-25T08:14:14.428Z,17.74
2019-04-25T08:16:46.407Z,17.90
2019-04-25T08:19:15.448Z,17.91
2019-04-25T08:21:45.196Z,18.08
2019-04-25T08:24:14.563Z,18.15
2019-04-25T08:26:43.694Z,18.21
2019-04-25T08:29:13.265Z,18.36
2019-04-25T08:31:43.925Z,18.27
2019-04-25T08:34:14.554Z,18.35
2019-04-25T08:36:45.421Z,18.39
2019-04-25T08:39:14.616Z,18.42
2019-04-25T08:41:45.441Z,18.36
2019-04-25T08:44:14.266Z,18.55
2019-04-25T08:46:44.213Z,18.72
2019-04-25T08:49:18.028Z,18.79
2019-04-25T08:51:48.487Z,18.72
2019-04-25T08:54:27.663Z,19.01
2019-04-25T08:56:58.220Z,19.23
2019-04-25T08:59:44.795Z,19.54
2019-04-25T09:02:18.916Z,19.59
2019-04-25T09:05:05.680Z,19.96
2019-04-25T09:07:35.369Z,19.99
2019-04-25T09:10:06.410Z,20.05
2019-04-25T09:12:36.344Z,20.42
2019-04-25T09:15:06.787Z,20.54
2019-04-25T09:17:35.931Z,20.35
2019-04-25T09:20:07.649Z,20.00
2019-04-25T09:22:37.381Z,20.32
2019-04-25T09:25:10.856Z,20.44
2019-04-25T09:27:41.721Z,20.38
2019-04-25T09:30:10.413Z,20.12
2019-04-25T09:32:39.927Z,20.20
2019-04-25T09:35:08.910Z,20.18
2019-04-25T09:37:37.536Z,20.50
2019-04-25T09:40:13.833Z,20.71
2019-04-25T09:42:44.733Z,20.86
2019-04-25T09:45:24.091Z,21.11
2019-04-25T09:47:53.417Z,21.06
2019-04-25T09:50:39.662Z,21.13
2019-04-25T09:53:20.793Z,20.78
2019-04-25T09:55:44.132Z,21.11
2019-04-25T09:58:15.744Z,21.43
2019-04-25T10:00:46.509Z,21.31
2019-04-25T10:03:15.228Z,21.32
2019-04-25T10:05:44.720Z,21.18
2019-04-25T10:08:13.527Z,21.49
2019-04-25T10:10:42.813Z,21.37
2019-04-25T10:13:11.415Z,21.44
2019-04-25T10:16:04.198Z,21.56
2019-04-25T10:18:33.893Z,22.04
2019-04-25T10:21:04.757Z,22.04
2019-04-25T10:23:34.279Z,22.09
2019-04-25T10:26:03.861Z,22.38
2019-04-25T10:28:33.580Z,22.37
2019-04-25T10:31:03.549Z,22.48
2019-04-25T10:33:32.452Z,22.71
2019-04-25T10:36:01.377Z,22.65
2019-04-25T10:38:30.783Z,22.51
2019-04-25T10:40:59.390Z,22.40
2019-04-25T10:43:28.016Z,22.46
2019-04-25T10:45:58.193Z,22.57
2019-04-25T10:48:29.737Z,22.95
2019-04-25T10:50:58.425Z,23.19
2019-04-25T10:53:27.051Z,23.22
2019-04-25T10:55:55.775Z,23.28
2019-04-25T10:58:24.924Z,22.95
2019-04-25T11:00:54.657Z,23.38
2019-04-25T11:03:30.843Z,23.49
2019-04-25T11:05:59.657Z,23.79
2019-04-25T11:08:28.370Z,23.76
2019-04-25T11:11:00.360Z,23.93
2019-04-25T11:13:28.989Z,24.09
2019-04-25T11:15:57.987Z,24.04
2019-04-25T11:18:28.251Z,24.13
2019-04-25T11:20:59.838Z,23.81
2019-04-25T11:23:28.549Z,23.90
2019-04-25T11:25:57.262Z,23.76
2019-04-25T11:28:27.372Z,23.78
2019-04-25T11:30:59.218Z,23.83
2019-04-25T11:33:28.656Z,23.92
2019-04-25T11:35:57.367Z,24.09
2019-04-25T11:38:30.922Z,24.26
2019-04-25T11:41:01.382Z,24.30
2019-04-25T11:43:30.033Z,24.25
2019-04-25T11:45:58.617Z,24.41
2019-04-25T11:48:27.258Z,24.54
2019-04-25T11:50:57.394Z,24.77
2019-04-25T11:53:28.885Z,24.68
2019-04-25T11:55:58.003Z,24.87
2019-04-25T11:58:28.364Z,24.95
2019-04-25T12:00:58.028Z,25.00
2019-04-25T12:03:29.933Z,24.98
2019-04-25T12:05:58.610Z,24.86
2019-04-25T12:08:27.380Z,24.79
2019-04-25T12:10:55.998Z,24.78
2019-04-25T12:13:24.722Z,24.78
2019-04-25T12:15:54.816Z,24.97
2019-04-25T12:18:25.643Z,24.99
2019-04-25T12:20:55.442Z,25.21
2019-04-25T12:23:24.743Z,24.61
2019-04-25T12:25:54.371Z,25.00
2019-04-25T12:28:23.933Z,24.98
2019-04-25T12:30:54.963Z,25.00
2019-04-25T12:33:23.886Z,25.25
2019-04-25T12:35:54.196Z,25.29
2019-04-25T12:38:24.464Z,25.37
2019-04-25T12:40:54.371Z,25.32
2019-04-25T12:43:25.432Z,25.10
2019-04-25T12:46:02.143Z,25.10
2019-04-25T12:48:30.754Z,25.37
2019-04-25T12:50:59.773Z,25.59
2019-04-25T12:53:28.385Z,25.56
2019-04-25T12:55:57.095Z,25.64
2019-04-25T12:58:25.818Z,25.83
2019-04-25T13:00:58.582Z,26.02
2019-04-25T13:03:28.926Z,26.20
2019-04-25T13:05:58.396Z,25.98
2019-04-25T13:08:27.329Z,25.86
2019-04-25T13:11:07.541Z,25.95
2019-04-25T13:13:27.994Z,25.80
2019-04-25T13:15:58.129Z,26.02
2019-04-25T13:18:29.815Z,26.16
2019-04-25T13:20:58.937Z,25.82
2019-04-25T13:23:27.487Z,25.74
2019-04-25T13:25:59.356Z,26.04
2019-04-25T13:28:32.255Z,26.01
2019-04-25T13:31:08.962Z,25.91
2019-04-25T13:33:43.355Z,25.94
2019-04-25T13:36:16.211Z,26.22
2019-04-25T13:38:45.270Z,26.19
2019-04-25T13:41:14.009Z,26.39
2019-04-25T13:43:42.562Z,26.60
2019-04-25T13:46:15.822Z,26.68
2019-04-25T13:48:43.209Z,26.48
2019-04-25T13:51:11.771Z,26.26
2019-04-25T13:53:40.394Z,26.35
2019-04-25T13:56:09.117Z,26.06
2019-04-25T13:58:37.722Z,26.22
2019-04-25T14:01:13.277Z,26.16
2019-04-25T14:03:37.795Z,26.31
2019-04-25T14:06:06.864Z,26.34
2019-04-25T14:08:35.471Z,26.48
2019-04-25T14:11:05.217Z,26.39
2019-04-25T14:13:33.891Z,26.24
2019-04-25T14:16:10.530Z,26.35
2019-04-25T14:18:56.579Z,26.41
2019-04-25T14:21:26.133Z,26.54
2019-04-25T14:23:55.612Z,26.58
2019-04-25T14:26:25.664Z,26.68
2019-04-25T14:28:56.378Z,26.71
2019-04-25T14:31:40.660Z,26.80
2019-04-25T14:33:55.551Z,26.50
2019-04-25T14:36:28.350Z,26.57
2019-04-25T14:38:59.788Z,26.71
2019-04-25T14:41:28.839Z,26.69
2019-04-25T14:43:57.448Z,26.72
2019-04-25T14:46:29.929Z,26.53
2019-04-25T14:48:58.570Z,26.60
2019-04-25T14:51:28.134Z,26.67
2019-04-25T14:54:04.645Z,26.78
2019-04-25T14:56:37.717Z,26.87
2019-04-25T14:59:06.650Z,27.48
2019-04-25T15:01:44.633Z,27.59
2019-04-25T15:04:05.929Z,28.04
2019-04-25T15:06:34.524Z,28.60
2019-04-25T15:09:03.150Z,28.93
2019-04-25T15:11:31.760Z,28.83
2019-04-25T15:14:00.471Z,28.67
2019-04-25T15:16:29.192Z,28.91
2019-04-25T15:19:05.432Z,29.22
2019-04-25T15:21:34.203Z,29.87
2019-04-25T15:24:02.826Z,30.68
2019-04-25T15:26:31.446Z,30.33
2019-04-25T15:29:00.055Z,30.74
2019-04-25T15:31:30.156Z,30.48
2019-04-25T15:33:58.935Z,30.83
2019-04-25T15:36:29.174Z,30.47
2019-04-25T15:39:15.603Z,30.31
2019-04-25T15:41:48.303Z,30.23
2019-04-25T15:44:21.217Z,30.77
2019-04-25T15:46:51.412Z,30.73
2019-04-25T15:49:20.080Z,30.56
2019-04-25T15:51:48.791Z,30.55
2019-04-25T15:54:17.406Z,30.09
2019-04-25T15:56:46.120Z,29.94
2019-04-25T15:59:14.834Z,29.26
2019-04-25T16:01:43.559Z,28.80
2019-04-25T16:04:12.168Z,27.93
2019-04-25T16:06:40.790Z,27.04
2019-04-25T16:09:10.528Z,26.39
2019-04-25T16:11:39.514Z,26.07
2019-04-25T16:14:08.205Z,25.99
2019-04-25T16:16:38.277Z,25.34
2019-04-25T16:19:07.186Z,24.80
2019-04-25T16:21:35.813Z,24.67
2019-04-25T16:24:04.724Z,24.56
2019-04-25T16:26:33.620Z,24.43
2019-04-25T16:29:02.708Z,24.27
2019-04-25T16:31:32.278Z,24.21
2019-04-25T16:34:03.872Z,24.08
2019-04-25T16:36:32.582Z,23.82
2019-04-25T16:39:01.402Z,23.81
2019-04-25T16:41:31.475Z,23.68
2019-04-25T16:44:04.413Z,23.68
2019-04-25T16:46:34.204Z,23.58
2019-04-25T16:49:02.921Z,23.35
2019-04-25T16:51:31.635Z,23.27
2019-04-25T16:54:03.013Z,23.08
2019-04-25T16:56:32.460Z,22.94
2019-04-25T16:59:01.728Z,22.77
2019-04-25T17:01:30.432Z,22.69
2019-04-25T17:03:59.254Z,22.68
2019-04-25T17:06:29.973Z,22.61
2019-04-25T17:08:58.724Z,22.61
2019-04-25T17:11:27.347Z,22.63
2019-04-25T17:14:01.999Z,22.49
2019-04-25T17:16:44.329Z,22.42
2019-04-25T17:19:14.986Z,22.31
2019-04-25T17:21:44.416Z,22.26
2019-04-25T17:24:13.039Z,22.11
2019-04-25T17:26:42.228Z,22.02
2019-04-25T17:29:12.915Z,21.95
2019-04-25T17:31:58.323Z,21.92
2019-04-25T17:34:28.674Z,21.86
2019-04-25T17:36:59.031Z,21.85
2019-04-25T17:39:44.644Z,21.74
2019-04-25T17:42:13.359Z,21.73
2019-04-25T17:44:42.584Z,21.62
2019-04-25T17:47:11.298Z,21.53
2019-04-25T17:49:39.929Z,21.47
2019-04-25T17:52:08.924Z,21.32
2019-04-25T17:54:37.536Z,21.23
2019-04-25T17:57:06.757Z,21.12
2019-04-25T17:59:35.473Z,21.07
2019-04-25T18:02:04.599Z,20.98
2019-04-25T18:04:34.056Z,20.88
2019-04-25T18:07:03.457Z,20.82
2019-04-25T18:09:32.378Z,20.75
2019-04-25T18:12:01.104Z,20.66
2019-04-25T18:14:29.821Z,20.58
2019-04-25T18:16:58.755Z,20.53
2019-04-25T18:19:29.005Z,20.45
2019-04-25T18:21:59.282Z,20.40
2019-04-25T18:24:41.380Z,20.17
2019-04-25T18:27:18.085Z,20.02
2019-04-25T18:29:49.311Z,19.86
2019-04-25T18:32:17.867Z,19.73
2019-04-25T18:34:48.231Z,19.60
2019-04-25T18:37:31.085Z,19.41
2019-04-25T18:40:01.343Z,19.24
2019-04-25T18:42:49.846Z,19.12
2019-04-25T18:45:23.350Z,18.94
2019-04-25T18:47:51.968Z,18.84
2019-04-25T18:50:22.279Z,18.77
2019-04-25T18:53:01.491Z,18.67
2019-04-25T18:55:31.749Z,18.63
2019-04-25T18:58:18.190Z,18.50
2019-04-25T19:01:03.306Z,18.38
2019-04-25T19:03:51.704Z,18.30
2019-04-25T19:06:21.934Z,18.18
2019-04-25T19:08:52.514Z,18.13
2019-04-25T19:11:20.919Z,18.00
2019-04-25T19:13:49.541Z,17.88
2019-04-25T19:16:18.247Z,17.83
2019-04-25T19:18:48.008Z,17.75
2019-04-25T19:21:16.699Z,17.74
2019-04-25T19:23:46.091Z,17.67
2019-04-25T19:26:14.858Z,17.59
2019-04-25T19:28:43.470Z,17.49
2019-04-25T19:31:12.115Z,17.39
2019-04-25T19:33:41.635Z,17.29
2019-04-25T19:36:10.768Z,17.24
2019-04-25T19:38:39.561Z,17.20
2019-04-25T19:41:10.957Z,17.13
2019-04-25T19:43:42.190Z,17.02
2019-04-25T19:46:10.875Z,16.98
2019-04-25T19:48:41.227Z,16.91
2019-04-25T19:51:09.867Z,16.88
2019-04-25T19:53:38.844Z,16.89
2019-04-25T19:56:07.472Z,16.81
2019-04-25T19:58:36.208Z,16.72
2019-04-25T20:01:05.255Z,16.76
2019-04-25T20:03:49.187Z,16.66
2019-04-25T20:06:13.565Z,16.59
2019-04-25T20:08:44.833Z,16.52
2019-04-25T20:11:33.598Z,16.39
2019-04-25T20:14:02.449Z,16.37
2019-04-25T20:16:33.082Z,16.39
2019-04-25T20:19:01.780Z,16.28
2019-04-25T20:21:30.413Z,16.27
2019-04-25T20:24:01.018Z,16.18
2019-04-25T20:26:29.612Z,16.28
2019-04-25T20:28:58.233Z,16.23
2019-04-25T20:31:29.613Z,16.19
2019-04-25T20:34:05.242Z,16.12
2019-04-25T20:36:28.933Z,16.01
2019-04-25T20:38:57.587Z,15.94
2019-04-25T20:41:26.747Z,15.87
2019-04-25T20:43:58.274Z,15.85
2019-04-25T20:46:30.111Z,15.86
2019-04-25T20:48:59.088Z,15.84
2019-04-25T20:51:27.702Z,15.70
2019-04-25T20:53:57.089Z,15.66
2019-04-25T20:56:27.315Z,15.61
2019-04-25T20:58:57.675Z,15.61
2019-04-25T21:01:26.402Z,15.53
2019-04-25T21:03:56.228Z,15.50
2019-04-25T21:06:29.892Z,15.48
2019-04-25T21:08:58.498Z,15.44
2019-04-25T21:11:27.520Z,15.67
2019-04-25T21:14:03.323Z,15.51
2019-04-25T21:16:43.210Z,15.54
2019-04-25T21:19:19.711Z,15.40
2019-04-25T21:21:48.352Z,15.25
2019-04-25T21:24:16.978Z,15.30
2019-04-25T21:26:46.637Z,15.18
2019-04-25T21:29:15.584Z,15.22
2019-04-25T21:31:44.195Z,15.10
2019-04-25T21:34:25.177Z,15.10
2019-04-25T21:36:43.270Z,15.14
2019-04-25T21:39:14.129Z,15.13
2019-04-25T21:41:47.759Z,15.12
2019-04-25T21:44:17.731Z,15.22
2019-04-25T21:46:46.512Z,15.21
2019-04-25T21:49:15.430Z,15.16
2019-04-25T21:51:44.038Z,15.08
2019-04-25T21:54:13.055Z,15.01
2019-04-25T21:56:41.873Z,15.02
2019-04-25T21:59:10.791Z,15.04
2019-04-25T22:01:41.348Z,15.02
2019-04-25T22:04:09.964Z,15.01
2019-04-25T22:06:38.771Z,15.00
2019-04-25T22:09:11.268Z,14.99
2019-04-25T22:11:39.993Z,14.92
2019-04-25T22:14:09.614Z,14.84
2019-04-25T22:16:38.776Z,14.85
2019-04-25T22:19:07.855Z,14.80
2019-04-25T22:21:38.205Z,14.74
2019-04-25T22:24:13.723Z,14.68
2019-04-25T22:26:38.113Z,14.96
2019-04-25T22:29:07.551Z,14.76
2019-04-25T22:31:53.269Z,14.79
2019-04-25T22:34:26.814Z,14.73
2019-04-25T22:36:58.618Z,14.73
2019-04-25T22:39:27.328Z,14.67
2019-04-25T22:41:59.541Z,14.64
2019-04-25T22:44:29.175Z,14.61
2019-04-25T22:46:58.091Z,14.70
2019-04-25T22:49:28.344Z,14.64
2019-04-25T22:52:00.585Z,14.64
2019-04-25T22:54:30.787Z,14.66
2019-04-25T22:57:00.074Z,14.60
2019-04-25T22:59:30.469Z,14.59
2019-04-25T23:02:02.420Z,14.57
2019-04-25T23:04:33.218Z,14.56
2019-04-25T23:07:02.548Z,14.54
2019-04-25T23:09:32.994Z,14.51
2019-04-25T23:12:02.061Z,14.39
2019-04-25T23:14:31.442Z,14.30
2019-04-25T23:17:00.050Z,14.31
2019-04-25T23:19:28.657Z,14.19
2019-04-25T23:21:58.401Z,14.26
2019-04-25T23:24:28.584Z,14.26
2019-04-25T23:27:08.011Z,14.27
2019-04-25T23:29:36.627Z,14.18
2019-04-25T23:32:06.736Z,14.13
2019-04-25T23:34:35.307Z,14.14
2019-04-25T23:37:04.711Z,14.06
2019-04-25T23:39:34.204Z,14.15
2019-04-25T23:42:02.785Z,14.12
2019-04-25T23:44:31.394Z,14.03
2019-04-25T23:47:00.514Z,13.99
2019-04-25T23:49:29.533Z,13.92
2019-04-25T23:51:58.454Z,13.94
2019-04-25T23:54:27.162Z,13.98
2019-04-25T23:56:58.851Z,14.00
2019-04-25T23:59:27.560Z,13.92
